createdAt,value
2023-02-17T00:01:28.286Z,6.85
2023-02-17T00:03:56.533Z,6.80
2023-02-17T00:06:26.452Z,5.65
2023-02-17T00:08:56.371Z,6.07
2023-02-17T00:11:24.924Z,6.38
2023-02-17T00:13:56.133Z,5.75
2023-02-17T00:16:31.054Z,6.05
2023-02-17T00:19:01.561Z,7.05
2023-02-17T00:21:31.778Z,6.47
2023-02-17T00:24:01.600Z,5.75
2023-02-17T00:26:29.739Z,6.47
2023-02-17T00:28:59.775Z,5.40
2023-02-17T00:31:27.930Z,5.63
2023-02-17T00:33:57.321Z,5.97
2023-02-17T00:36:26.901Z,5.25
2023-02-17T00:38:56.729Z,7.22
2023-02-17T00:41:27.792Z,5.22
2023-02-17T00:43:56.218Z,5.30
2023-02-17T00:46:24.869Z,5.03
2023-02-17T00:48:53.745Z,6.75
2023-02-17T00:51:22.043Z,5.75
2023-02-17T00:53:50.748Z,6.28
2023-02-17T00:56:19.037Z,5.70
2023-02-17T00:58:48.313Z,6.65
2023-02-17T01:01:16.415Z,5.55
2023-02-17T01:03:44.648Z,5.75
2023-02-17T01:06:29.866Z,5.82
2023-02-17T01:08:57.852Z,6.32
2023-02-17T01:11:28.471Z,5.47
2023-02-17T01:13:58.489Z,5.35
2023-02-17T01:16:28.744Z,4.93
2023-02-17T01:18:57.352Z,5.65
2023-02-17T01:21:28.024Z,5.53
2023-02-17T01:23:58.140Z,6.22
2023-02-17T01:26:28.708Z,4.65
2023-02-17T01:28:58.171Z,5.95
2023-02-17T01:31:28.398Z,5.10
2023-02-17T01:33:58.531Z,5.47
2023-02-17T01:36:27.213Z,6.07
2023-02-17T01:38:55.179Z,6.20
2023-02-17T01:41:30.144Z,6.15
2023-02-17T01:44:10.103Z,4.85
2023-02-17T01:46:39.664Z,5.40
2023-02-17T01:49:16.529Z,5.45
2023-02-17T01:51:48.467Z,4.50
2023-02-17T01:54:20.150Z,5.57
2023-02-17T01:56:51.555Z,5.03
2023-02-17T01:59:22.907Z,5.47
2023-02-17T02:01:56.142Z,5.22
2023-02-17T02:04:29.884Z,5.57
2023-02-17T02:06:58.446Z,5.35
2023-02-17T02:09:33.239Z,4.65
2023-02-17T02:12:01.342Z,5.13
2023-02-17T02:14:30.891Z,5.60
2023-02-17T02:17:10.415Z,5.20
2023-02-17T02:20:20.584Z,5.47
2023-02-17T02:23:21.412Z,5.25
2023-02-17T02:26:20.161Z,4.65
2023-02-17T02:29:11.255Z,6.10
2023-02-17T02:31:48.702Z,5.47
2023-02-17T02:34:22.733Z,5.40
2023-02-17T02:36:57.968Z,5.35
2023-02-17T02:39:31.312Z,5.03
2023-02-17T02:42:03.480Z,5.88
2023-02-17T02:44:31.576Z,4.18
2023-02-17T02:47:00.898Z,4.35
2023-02-17T02:49:32.821Z,5.60
2023-02-17T02:52:07.219Z,4.88
2023-02-17T02:54:47.107Z,5.63
2023-02-17T02:57:27.439Z,5.13
2023-02-17T03:00:10.770Z,5.35
2023-02-17T03:02:46.040Z,4.70
2023-02-17T03:05:21.498Z,5.10
2023-02-17T03:07:55.798Z,4.90
2023-02-17T03:10:23.756Z,5.65
2023-02-17T03:12:51.998Z,5.65
2023-02-17T03:15:26.709Z,6.28
2023-02-17T03:17:58.436Z,5.93
2023-02-17T03:20:31.057Z,4.40
2023-02-17T03:22:59.206Z,5.70
2023-02-17T03:25:27.244Z,5.20
2023-02-17T03:27:55.229Z,5.65
2023-02-17T03:30:23.184Z,5.40
2023-02-17T03:32:51.252Z,4.57
2023-02-17T03:35:19.381Z,4.80
2023-02-17T03:37:49.000Z,4.63
2023-02-17T03:40:17.291Z,6.97
2023-02-17T03:42:45.217Z,6.30
2023-02-17T03:45:13.097Z,5.78
2023-02-17T03:47:41.440Z,5.30
2023-02-17T03:50:10.136Z,5.93
2023-02-17T03:52:38.487Z,4.32
2023-02-17T03:55:10.767Z,4.55
2023-02-17T03:57:38.804Z,5.50
2023-02-17T04:00:09.445Z,6.15
2023-02-17T04:02:37.759Z,5.65
2023-02-17T04:05:06.266Z,5.53
2023-02-17T04:07:34.719Z,5.40
2023-02-17T04:10:05.170Z,7.38
2023-02-17T04:12:35.613Z,9.30
2023-02-17T04:15:03.732Z,13.20
2023-02-17T04:17:32.020Z,10.63
2023-02-17T04:20:00.253Z,8.98
2023-02-17T04:22:28.220Z,7.15
2023-02-17T04:24:56.112Z,5.93
2023-02-17T04:27:24.347Z,6.45
2023-02-17T04:29:54.621Z,5.28
2023-02-17T04:32:22.678Z,6.47
2023-02-17T04:34:50.735Z,4.95
2023-02-17T04:37:19.043Z,5.90
2023-02-17T04:39:47.265Z,5.45
2023-02-17T04:42:15.230Z,5.53
2023-02-17T04:44:43.447Z,4.85
2023-02-17T04:47:13.625Z,5.80
2023-02-17T04:49:41.633Z,5.28
2023-02-17T04:52:10.036Z,5.43
2023-02-17T04:54:38.308Z,5.80
2023-02-17T04:57:06.199Z,5.20
2023-02-17T04:59:34.049Z,6.18
2023-02-17T05:02:02.056Z,5.82
2023-02-17T05:04:31.969Z,5.32
2023-02-17T05:07:02.237Z,6.00
2023-02-17T05:09:30.389Z,6.28
2023-02-17T05:11:59.222Z,7.57
2023-02-17T05:14:28.089Z,5.30
2023-02-17T05:16:56.068Z,5.35
2023-02-17T05:19:24.161Z,4.22
2023-02-17T05:21:53.858Z,5.43
2023-02-17T05:24:21.811Z,6.00
2023-02-17T05:26:49.886Z,5.60
2023-02-17T05:29:18.131Z,5.78
2023-02-17T05:31:46.243Z,5.97
2023-02-17T05:34:14.430Z,5.95
2023-02-17T05:36:42.796Z,5.53
2023-02-17T05:39:12.804Z,5.65
2023-02-17T05:41:40.967Z,5.50
2023-02-17T05:44:09.001Z,5.72
2023-02-17T05:46:37.008Z,6.00
2023-02-17T05:49:04.973Z,6.28
2023-02-17T05:51:32.984Z,6.10
2023-02-17T05:54:03.378Z,4.68
2023-02-17T05:56:32.965Z,5.40
2023-02-17T05:59:01.260Z,5.80
2023-02-17T06:01:29.708Z,5.22
2023-02-17T06:03:57.627Z,6.10
2023-02-17T06:06:25.551Z,4.72
2023-02-17T06:08:53.583Z,5.85
2023-02-17T06:11:21.737Z,5.70
2023-02-17T06:13:51.171Z,6.18
2023-02-17T06:16:19.383Z,6.47
2023-02-17T06:18:47.546Z,6.95
2023-02-17T06:21:15.552Z,7.70
2023-02-17T06:23:43.593Z,8.15
2023-02-17T06:26:11.898Z,7.45
2023-02-17T06:28:39.856Z,6.50
2023-02-17T06:31:09.724Z,5.68
2023-02-17T06:33:37.975Z,5.50
2023-02-17T06:36:07.083Z,5.95
2023-02-17T06:38:35.677Z,6.40
2023-02-17T06:41:03.767Z,5.15
2023-02-17T06:43:31.737Z,5.57
2023-02-17T06:46:00.008Z,5.63
2023-02-17T06:48:29.509Z,5.20
2023-02-17T06:50:57.347Z,7.18
2023-02-17T06:53:25.534Z,5.88
2023-02-17T06:55:53.797Z,7.45
2023-02-17T06:58:21.736Z,6.80
2023-02-17T07:00:50.054Z,5.47
2023-02-17T07:03:18.106Z,6.82
2023-02-17T07:05:47.469Z,5.43
2023-02-17T07:08:16.190Z,5.55
2023-02-17T07:10:44.593Z,6.43
2023-02-17T07:13:12.537Z,6.07
2023-02-17T07:15:40.529Z,6.13
2023-02-17T07:18:08.526Z,6.57
2023-02-17T07:20:38.232Z,6.10
2023-02-17T07:23:08.785Z,6.07
2023-02-17T07:25:36.928Z,4.97
2023-02-17T07:28:04.930Z,6.10
2023-02-17T07:30:33.390Z,5.95
2023-02-17T07:33:01.285Z,6.30
2023-02-17T07:35:29.227Z,5.93
2023-02-17T07:37:58.543Z,6.35
2023-02-17T07:40:28.882Z,5.43
2023-02-17T07:42:58.673Z,5.53
2023-02-17T07:45:26.576Z,5.53
2023-02-17T07:47:54.775Z,5.40
2023-02-17T07:50:23.465Z,6.05
2023-02-17T07:52:52.393Z,6.05
2023-02-17T07:55:20.486Z,6.35
2023-02-17T07:57:49.917Z,6.57
2023-02-17T08:00:20.131Z,6.40
2023-02-17T08:02:48.121Z,6.35
2023-02-17T08:05:16.212Z,5.80
2023-02-17T08:07:44.158Z,5.45
2023-02-17T08:10:31.387Z,5.40
2023-02-17T08:13:19.382Z,5.65
2023-02-17T08:15:47.805Z,7.30
2023-02-17T08:18:16.003Z,6.78
2023-02-17T08:20:44.567Z,7.18
2023-02-17T08:23:13.147Z,7.25
2023-02-17T08:25:41.471Z,8.05
2023-02-17T08:28:13.559Z,6.38
2023-02-17T08:30:42.261Z,5.35
2023-02-17T08:33:10.815Z,5.22
2023-02-17T08:35:39.304Z,5.82
2023-02-17T08:38:07.592Z,5.82
2023-02-17T08:40:36.038Z,5.63
2023-02-17T08:43:04.439Z,4.78
2023-02-17T08:45:34.523Z,4.68
2023-02-17T08:48:02.532Z,5.55
2023-02-17T08:50:31.633Z,5.57
2023-02-17T08:52:59.856Z,4.57
2023-02-17T08:55:30.455Z,4.55
2023-02-17T08:58:01.930Z,4.30
2023-02-17T09:00:30.419Z,4.80
2023-02-17T09:03:00.029Z,4.95
2023-02-17T09:05:28.078Z,4.78
2023-02-17T09:07:56.297Z,6.32
2023-02-17T09:10:24.673Z,5.78
2023-02-17T09:12:53.183Z,5.47
2023-02-17T09:15:21.652Z,5.25
2023-02-17T09:17:50.162Z,6.28
2023-02-17T09:20:25.089Z,5.72
2023-02-17T09:22:54.130Z,5.50
2023-02-17T09:25:22.496Z,5.28
2023-02-17T09:27:50.850Z,5.47
2023-02-17T09:30:20.392Z,4.97
2023-02-17T09:32:48.571Z,5.18
2023-02-17T09:35:19.644Z,4.95
2023-02-17T09:37:48.535Z,4.80
2023-02-17T09:40:20.179Z,4.65
2023-02-17T09:42:49.777Z,6.35
2023-02-17T09:45:23.610Z,4.22
2023-02-17T09:47:54.847Z,4.38
2023-02-17T09:50:29.949Z,4.20
2023-02-17T09:53:03.913Z,5.05
2023-02-17T09:55:39.240Z,4.30
2023-02-17T09:58:13.395Z,4.80
2023-02-17T10:00:46.637Z,4.70
2023-02-17T10:03:19.311Z,4.63
2023-02-17T10:05:54.559Z,4.75
2023-02-17T10:08:28.145Z,4.00
2023-02-17T10:11:01.853Z,4.05
2023-02-17T10:13:34.778Z,3.95
2023-02-17T10:16:07.096Z,4.85
2023-02-17T10:18:40.963Z,4.43
2023-02-17T10:21:15.633Z,3.83
2023-02-17T10:23:46.002Z,3.90
2023-02-17T10:26:23.925Z,4.18
2023-02-17T10:28:54.020Z,5.10
2023-02-17T10:31:38.028Z,5.60
2023-02-17T10:34:15.393Z,6.05
2023-02-17T10:36:54.611Z,5.45
2023-02-17T10:39:36.273Z,5.47
2023-02-17T10:42:05.304Z,5.28
2023-02-17T10:44:37.900Z,4.47
2023-02-17T10:47:06.881Z,4.65
2023-02-17T10:49:38.948Z,4.63
2023-02-17T10:52:16.071Z,4.38
2023-02-17T10:54:49.866Z,4.45
2023-02-17T10:57:20.497Z,5.30
2023-02-17T10:59:50.478Z,5.93
2023-02-17T11:02:21.827Z,5.10
2023-02-17T11:04:51.439Z,5.55
2023-02-17T11:07:33.974Z,4.10
2023-02-17T11:10:03.925Z,3.85
2023-02-17T11:12:40.160Z,2.78
2023-02-17T11:15:18.283Z,3.97
2023-02-17T11:17:47.397Z,3.58
2023-02-17T11:20:42.243Z,4.38
2023-02-17T11:23:25.702Z,3.33
2023-02-17T11:25:59.928Z,3.58
2023-02-17T11:28:28.586Z,4.57
2023-02-17T11:30:59.750Z,4.28
2023-02-17T11:33:33.167Z,3.30
2023-02-17T11:36:01.560Z,3.25
2023-02-17T11:38:42.314Z,4.43
2023-02-17T11:41:11.248Z,4.72
2023-02-17T11:43:40.877Z,4.45
2023-02-17T11:46:25.509Z,3.30
2023-02-17T11:49:25.234Z,5.22
2023-02-17T11:52:03.120Z,5.15
2023-02-17T11:54:53.068Z,4.75
2023-02-17T11:57:35.118Z,4.55
2023-02-17T12:00:15.110Z,5.45
2023-02-17T12:03:05.113Z,2.80
2023-02-17T12:05:44.662Z,4.78
2023-02-17T12:08:21.631Z,5.20
2023-02-17T12:11:05.321Z,5.00
2023-02-17T12:13:44.271Z,4.82
2023-02-17T12:16:25.380Z,4.10
2023-02-17T12:19:03.848Z,5.30
2023-02-17T12:21:51.639Z,5.47
2023-02-17T12:24:38.325Z,4.97
2023-02-17T12:27:24.630Z,6.85
2023-02-17T12:30:11.257Z,6.35
2023-02-17T12:32:54.723Z,5.80
2023-02-17T12:35:26.577Z,7.03
2023-02-17T12:37:57.929Z,8.93
2023-02-17T12:40:35.494Z,8.88
2023-02-17T12:43:16.199Z,7.78
2023-02-17T12:45:49.329Z,6.90
2023-02-17T12:48:24.290Z,6.35
2023-02-17T12:50:57.429Z,6.18
2023-02-17T12:53:35.806Z,5.43
2023-02-17T12:56:05.853Z,4.10
2023-02-17T12:58:39.585Z,3.60
2023-02-17T13:01:14.830Z,3.88
2023-02-17T13:03:43.088Z,3.72
2023-02-17T13:06:23.655Z,4.47
2023-02-17T13:08:56.204Z,4.47
2023-02-17T13:11:29.604Z,4.05
2023-02-17T13:14:10.763Z,4.18
2023-02-17T13:16:44.005Z,3.67
2023-02-17T13:19:12.265Z,3.88
2023-02-17T13:21:53.693Z,3.85
2023-02-17T13:24:34.490Z,3.47
2023-02-17T13:27:13.012Z,3.58
2023-02-17T13:29:42.327Z,4.60
2023-02-17T13:32:14.087Z,3.42
2023-02-17T13:34:44.360Z,3.45
2023-02-17T13:37:26.599Z,5.60
2023-02-17T13:39:54.979Z,8.23
2023-02-17T13:42:38.866Z,17.38
2023-02-17T13:45:19.298Z,15.95
2023-02-17T13:47:49.058Z,4.30
2023-02-17T13:50:35.216Z,4.38
2023-02-17T13:53:07.947Z,7.72
2023-02-17T13:55:36.535Z,10.75
2023-02-17T13:58:04.522Z,14.18
2023-02-17T14:00:34.113Z,12.82
2023-02-17T14:03:14.490Z,12.48
2023-02-17T14:05:45.942Z,9.25
2023-02-17T14:08:18.450Z,7.00
2023-02-17T14:10:47.744Z,5.25
2023-02-17T14:13:16.046Z,5.10
2023-02-17T14:15:54.015Z,4.47
2023-02-17T14:18:43.177Z,5.45
2023-02-17T14:21:15.851Z,6.82
2023-02-17T14:23:46.705Z,6.53
2023-02-17T14:26:27.831Z,6.50
2023-02-17T14:28:57.578Z,8.63
2023-02-17T14:31:28.232Z,12.57
2023-02-17T14:33:59.674Z,8.68
2023-02-17T14:36:43.477Z,7.53
2023-02-17T14:39:16.100Z,6.03
2023-02-17T14:41:45.149Z,9.88
2023-02-17T14:44:13.181Z,7.20
2023-02-17T14:46:42.714Z,8.77
2023-02-17T14:49:10.768Z,12.95
2023-02-17T14:51:39.173Z,8.88
2023-02-17T14:54:15.495Z,7.63
2023-02-17T14:56:47.918Z,5.50
2023-02-17T14:59:16.027Z,7.97
2023-02-17T15:01:45.405Z,6.22
2023-02-17T15:04:14.036Z,8.20
2023-02-17T15:06:47.205Z,6.47
2023-02-17T15:09:18.551Z,6.78
2023-02-17T15:12:00.700Z,5.25
2023-02-17T15:14:29.282Z,5.90
2023-02-17T15:16:58.767Z,6.07
2023-02-17T15:19:26.822Z,4.40
2023-02-17T15:21:54.791Z,4.97
2023-02-17T15:24:29.851Z,4.88
2023-02-17T15:26:58.554Z,4.93
2023-02-17T15:29:28.459Z,6.03
2023-02-17T15:32:00.332Z,5.70
2023-02-17T15:34:32.239Z,8.60
2023-02-17T15:37:00.354Z,6.75
2023-02-17T15:39:28.635Z,5.65
2023-02-17T15:42:01.435Z,4.63
2023-02-17T15:44:36.528Z,5.25
2023-02-17T15:47:06.063Z,6.13
2023-02-17T15:49:34.166Z,7.82
2023-02-17T15:52:02.418Z,5.93
2023-02-17T15:54:30.749Z,6.30
2023-02-17T15:56:59.298Z,6.25
2023-02-17T15:59:28.371Z,6.90
2023-02-17T16:01:56.900Z,6.38
2023-02-17T16:04:26.640Z,9.35
2023-02-17T16:06:54.622Z,5.90
2023-02-17T16:09:25.641Z,4.90
2023-02-17T16:12:01.599Z,4.32
2023-02-17T16:14:40.693Z,4.57
2023-02-17T16:17:23.366Z,5.75
2023-02-17T16:19:56.909Z,7.72
2023-02-17T16:22:25.142Z,5.32
2023-02-17T16:24:53.089Z,7.15
2023-02-17T16:27:50.909Z,5.28
2023-02-17T16:30:39.326Z,6.30
2023-02-17T16:33:12.986Z,6.60
2023-02-17T16:35:43.606Z,6.35
2023-02-17T16:38:16.791Z,4.72
2023-02-17T16:40:48.350Z,4.10
2023-02-17T16:43:17.705Z,4.38
2023-02-17T16:45:54.008Z,3.83
2023-02-17T16:48:23.580Z,4.32
2023-02-17T16:50:53.555Z,4.13
2023-02-17T16:53:21.834Z,5.40
2023-02-17T16:55:51.577Z,5.88
2023-02-17T16:58:23.004Z,5.50
2023-02-17T17:00:55.233Z,5.82
2023-02-17T17:03:27.265Z,6.35
2023-02-17T17:05:56.705Z,6.20
2023-02-17T17:08:24.918Z,5.40
2023-02-17T17:10:53.107Z,4.30
2023-02-17T17:13:21.462Z,3.85
2023-02-17T17:15:50.004Z,4.88
2023-02-17T17:18:23.840Z,6.32
2023-02-17T17:20:51.882Z,5.40
2023-02-17T17:23:21.320Z,4.25
2023-02-17T17:25:49.487Z,5.00
2023-02-17T17:28:20.035Z,5.32
2023-02-17T17:30:48.417Z,5.00
2023-02-17T17:33:16.538Z,5.28
2023-02-17T17:35:44.631Z,6.90
2023-02-17T17:38:15.908Z,5.80
2023-02-17T17:40:52.028Z,5.03
2023-02-17T17:43:23.466Z,4.88
2023-02-17T17:45:52.731Z,6.53
2023-02-17T17:48:21.010Z,4.75
2023-02-17T17:50:50.191Z,4.82
2023-02-17T17:53:18.370Z,4.80
2023-02-17T17:55:48.466Z,4.18
2023-02-17T17:58:17.269Z,5.28
2023-02-17T18:00:45.389Z,4.55
2023-02-17T18:03:13.464Z,5.05
2023-02-17T18:05:41.724Z,4.95
2023-02-17T18:08:11.120Z,4.32
2023-02-17T18:10:40.400Z,4.57
2023-02-17T18:13:12.995Z,4.60
2023-02-17T18:15:42.649Z,4.30
2023-02-17T18:18:11.899Z,3.92
2023-02-17T18:20:40.733Z,3.65
2023-02-17T18:23:09.059Z,4.80
2023-02-17T18:25:37.100Z,4.50
2023-02-17T18:28:05.200Z,6.10
2023-02-17T18:30:34.809Z,4.63
2023-02-17T18:33:03.085Z,5.15
2023-02-17T18:35:31.063Z,4.88
2023-02-17T18:37:59.151Z,6.80
2023-02-17T18:40:29.150Z,6.60
2023-02-17T18:42:57.438Z,6.18
2023-02-17T18:45:31.778Z,5.75
2023-02-17T18:48:01.403Z,7.80
2023-02-17T18:50:33.018Z,5.57
2023-02-17T18:53:03.023Z,5.35
2023-02-17T18:55:33.801Z,5.78
2023-02-17T18:58:01.747Z,5.43
2023-02-17T19:00:30.219Z,6.13
2023-02-17T19:02:58.303Z,5.38
2023-02-17T19:05:28.767Z,6.03
2023-02-17T19:07:57.431Z,8.52
2023-02-17T19:10:25.517Z,7.65
2023-02-17T19:12:53.812Z,7.22
2023-02-17T19:15:22.047Z,6.32
2023-02-17T19:17:51.299Z,6.95
2023-02-17T19:20:19.539Z,5.70
2023-02-17T19:22:49.393Z,5.45
2023-02-17T19:25:17.601Z,5.63
2023-02-17T19:27:45.730Z,5.95
2023-02-17T19:30:14.777Z,5.57
2023-02-17T19:32:42.883Z,6.50
2023-02-17T19:35:11.792Z,5.95
2023-02-17T19:37:40.276Z,7.05
2023-02-17T19:40:10.695Z,7.22
2023-02-17T19:42:40.295Z,6.43
2023-02-17T19:45:08.649Z,6.05
2023-02-17T19:47:36.662Z,5.88
2023-02-17T19:50:04.978Z,7.40
2023-02-17T19:52:33.199Z,4.78
2023-02-17T19:55:01.478Z,4.30
2023-02-17T19:57:31.091Z,4.55
2023-02-17T19:59:59.053Z,5.28
2023-02-17T20:02:28.037Z,4.00
2023-02-17T20:04:56.074Z,4.00
2023-02-17T20:07:24.053Z,4.28
2023-02-17T20:09:52.131Z,5.68
2023-02-17T20:12:20.114Z,4.25
2023-02-17T20:14:49.762Z,4.90
2023-02-17T20:17:17.907Z,5.45
2023-02-17T20:19:46.112Z,5.80
2023-02-17T20:22:14.182Z,4.75
2023-02-17T20:24:42.729Z,4.35
2023-02-17T20:27:11.885Z,4.75
2023-02-17T20:29:40.117Z,4.75
2023-02-17T20:32:09.802Z,5.55
2023-02-17T20:34:41.255Z,3.80
2023-02-17T20:37:10.384Z,3.35
2023-02-17T20:39:42.193Z,3.15
2023-02-17T20:42:10.703Z,2.97
2023-02-17T20:44:38.862Z,3.22
2023-02-17T20:47:07.742Z,3.53
2023-02-17T20:49:37.595Z,2.92
2023-02-17T20:52:07.182Z,4.63
2023-02-17T20:54:35.856Z,4.57
2023-02-17T20:57:05.088Z,3.60
2023-02-17T20:59:34.604Z,4.40
2023-02-17T21:02:02.713Z,4.30
2023-02-17T21:04:30.763Z,3.90
2023-02-17T21:07:01.451Z,2.83
2023-02-17T21:09:29.708Z,3.15
2023-02-17T21:11:57.753Z,3.38
2023-02-17T21:14:25.689Z,2.22
2023-02-17T21:16:53.795Z,2.72
2023-02-17T21:19:22.135Z,2.85
2023-02-17T21:21:50.084Z,2.00
2023-02-17T21:24:19.779Z,3.05
2023-02-17T21:26:47.827Z,4.55
2023-02-17T21:29:16.106Z,3.35
2023-02-17T21:31:44.122Z,2.92
2023-02-17T21:34:12.106Z,2.72
2023-02-17T21:36:40.336Z,2.70
2023-02-17T21:39:08.426Z,4.07
2023-02-17T21:41:37.785Z,2.70
2023-02-17T21:44:23.747Z,2.83
2023-02-17T21:46:53.695Z,4.25
2023-02-17T21:49:23.392Z,3.17
2023-02-17T21:51:52.256Z,2.38
2023-02-17T21:54:20.219Z,2.53
2023-02-17T21:56:49.636Z,3.97
2023-02-17T21:59:18.660Z,3.70
2023-02-17T22:01:46.596Z,5.13
2023-02-17T22:04:14.920Z,2.67
2023-02-17T22:06:43.376Z,2.53
2023-02-17T22:09:14.788Z,3.00
2023-02-17T22:11:44.041Z,2.80
2023-02-17T22:14:16.038Z,5.80
2023-02-17T22:16:44.449Z,6.25
2023-02-17T22:19:15.971Z,3.30
2023-02-17T22:21:44.434Z,3.33
2023-02-17T22:24:13.160Z,2.88
2023-02-17T22:26:41.216Z,4.95
2023-02-17T22:29:09.183Z,3.83
2023-02-17T22:31:38.654Z,3.00
2023-02-17T22:34:10.004Z,3.28
2023-02-17T22:36:38.486Z,3.15
2023-02-17T22:39:08.747Z,3.42
2023-02-17T22:41:38.847Z,3.83
2023-02-17T22:44:07.167Z,2.10
2023-02-17T22:46:36.048Z,2.90
2023-02-17T22:49:07.139Z,3.10
2023-02-17T22:51:38.967Z,2.67
2023-02-17T22:54:08.432Z,3.25
2023-02-17T22:56:37.120Z,3.55
2023-02-17T22:59:05.897Z,3.28
2023-02-17T23:01:35.787Z,3.28
2023-02-17T23:04:06.588Z,2.70
2023-02-17T23:06:37.329Z,3.92
2023-02-17T23:09:06.482Z,3.28
2023-02-17T23:11:51.434Z,3.28
2023-02-17T23:14:21.805Z,3.40
2023-02-17T23:16:50.470Z,3.80
2023-02-17T23:19:22.339Z,3.63
2023-02-17T23:21:52.300Z,4.07
2023-02-17T23:24:21.386Z,3.70
2023-02-17T23:26:50.073Z,3.00
2023-02-17T23:29:19.219Z,3.88
2023-02-17T23:31:47.221Z,2.45
2023-02-17T23:34:16.395Z,2.55
2023-02-17T23:36:46.640Z,3.20
2023-02-17T23:39:15.081Z,3.13
2023-02-17T23:41:43.101Z,2.90
2023-02-17T23:44:13.672Z,2.20
2023-02-17T23:46:43.202Z,2.15
2023-02-17T23:49:14.055Z,1.85
2023-02-17T23:51:42.567Z,2.72
2023-02-17T23:54:11.878Z,2.05
2023-02-17T23:56:40.313Z,2.60
2023-02-17T23:59:08.609Z,2.63
